Bishop, Illinois
Current Conditions -  °F | °C
As of 12:54 PM on Monday 20 Oct 2014 (Local Time) from KPIA Reporting Station
Clear Clear  
Wind Chill: 19°   Ceiling: Unl
Heat Index: 19°   Visibility: 10mi
Dew Point:   Wind: 13mph
Humidity: 47%   Direction: 320°NW
Pressure: 29.91"   Gusts: 20mph
Location:  40.3389°N, 89.8274°W
Report Text: KPIA 201754Z AUTO 32011G17KT 290V350 10SM CLR 19/07 A2991 RMK AO2 SLP128 T01890072 10194 20083 58005 TSNO
Loading
Personal Weather Stations






























Interactive Weather Map
Tropical Storm Tracking
New forecast layout! Learn more

10-Day Weather Forecast

Advertisements
Track Severe Weather on mobile